Otto, NC

10:08 AM EST on March 03, 2015 (GMT -0500)
Coweeta Lake | Change Station
CLOSE
Current Station
Personal Weather Station
Location: OTTO, NC
Elevation: 2113 ft
Nearby Weather Stations

Elev 2113 ft 35.07 °N, 83.39 °W | Updated 27 seconds ago

Fog
Fog
49.0 °F
Feels Like 49 °F
N
2.9
Wind Variable Wind from South
Gusts 4.5 mph

Today
High -- | Low -- °F
--% Chance of Precip.
Yesterday
High -- | Low -- °F
Precip. -- in
7:00 AM 6:30 PM
Waxing Gibbous, 96% visible
Pressure 30.24 in
Visibility 5.0 miles
Clouds Scattered Clouds 200 ft
Scattered Clouds 1000 ft
Overcast 2000 ft
Windchill 49 °F
Dew Point 49 °F
Humidity 100%
Rainfall 0.02 in
Snow Depth Not available.
UV 1 out of 12
Pollen 2.40 out of 12
Air Quality Not available.
Flu Activity Not available.
METAR KRHP 031455Z AUTO 00000KT 5SM BR SCT002 SCT010 OVC020 09/09 A3024 RMK AO2 60005 T00900090

More Conditions Fewer Conditions

Pressure 30.24 in
Visibility 5.0 miles
Clouds Scattered Clouds 200 ft
Scattered Clouds 1000 ft
Overcast 2000 ft
Windchill 49 °F
Dew Point 49 °F
Humidity 100%
Rainfall 0.02 in
Snow Depth Not available.
UV 1 out of 12
Pollen 2.40 out of 12
Air Quality Not available.
Flu Activity Not available.
METAR KRHP 031455Z AUTO 00000KT 5SM BR SCT002 SCT010 OVC020 09/09 A3024 RMK AO2 60005 T00900090

More Conditions Fewer Conditions

10-Day Weather Forecast

Almanac

Astronomy

Mar. 03, 2015 Rise Set
Actual Time
Civil Twilight
Nautical Twilight
Astronomical Twilight
Moon
Length of Visible Light
Length of Day
Tomorrow will be .
, % of the Moon is Illuminated

Today's Extremes

State Highs State Lows

Community

WunderPhotos

Upload Photos

1,802,133 photos uploaded!

WunderBlogs® & News

Nearby

Air Quality

  Air Quality AQ Index Pollutant
Not available.

Snow Depth

Station Depth Elevation

Earthquake Activity

City Distance Mag. Time & Date
Minimum magnitude displayed is 2.5.

Coastal Water Temperatures

Place Temperature

Nearby Weather Stations